createdAt,value
2018-09-24T00:01:05.746Z,61.96
2018-09-24T00:03:34.887Z,62.25
2018-09-24T00:06:04.520Z,61.93
2018-09-24T00:08:33.537Z,61.51
2018-09-24T00:11:02.390Z,62.04
2018-09-24T00:13:31.599Z,61.67
2018-09-24T00:16:00.416Z,61.92
2018-09-24T00:18:29.209Z,62.16
2018-09-24T00:20:58.102Z,61.78
2018-09-24T00:23:27.237Z,62.20
2018-09-24T00:25:56.157Z,62.35
2018-09-24T00:28:24.989Z,62.30
2018-09-24T00:30:54.125Z,62.13
2018-09-24T00:33:23.011Z,62.51
2018-09-24T00:35:51.905Z,61.92
2018-09-24T00:38:21.041Z,62.54
2018-09-24T00:40:49.903Z,63.14
2018-09-24T00:43:18.761Z,62.32
2018-09-24T00:45:47.914Z,62.28
2018-09-24T00:48:16.833Z,63.04
2018-09-24T00:50:45.672Z,62.32
2018-09-24T00:53:19.466Z,62.37
2018-09-24T00:55:48.375Z,62.49
2018-09-24T00:58:17.232Z,62.46
2018-09-24T01:00:46.093Z,62.18
2018-09-24T01:03:14.922Z,63.05
2018-09-24T01:05:44.045Z,63.58
2018-09-24T01:08:12.906Z,63.09
2018-09-24T01:10:41.854Z,63.57
2018-09-24T01:13:11.096Z,63.57
2018-09-24T01:15:39.941Z,63.16
2018-09-24T01:18:08.798Z,62.30
2018-09-24T01:20:37.644Z,63.55
2018-09-24T01:23:06.899Z,63.72
2018-09-24T01:25:35.732Z,63.86
2018-09-24T01:28:05.381Z,63.86
2018-09-24T01:30:35.597Z,63.68
2018-09-24T01:33:04.449Z,64.67
2018-09-24T01:35:33.265Z,64.73
2018-09-24T01:38:03.056Z,64.59
2018-09-24T01:40:31.905Z,64.15
2018-09-24T01:43:00.692Z,65.33
2018-09-24T01:45:29.836Z,65.63
2018-09-24T01:47:58.645Z,65.29
2018-09-24T01:50:27.475Z,65.25
2018-09-24T01:53:01.246Z,65.84
2018-09-24T01:55:30.178Z,65.87
2018-09-24T01:57:58.996Z,65.66
2018-09-24T02:00:27.846Z,65.31
2018-09-24T02:02:57.015Z,65.18
2018-09-24T02:05:25.889Z,65.36
2018-09-24T02:07:54.761Z,64.83
2018-09-24T02:10:25.385Z,65.06
2018-09-24T02:12:58.337Z,64.34
2018-09-24T02:15:31.025Z,65.48
2018-09-24T02:18:00.259Z,65.42
2018-09-24T02:20:29.219Z,64.61
2018-09-24T02:22:58.065Z,64.50
2018-09-24T02:25:26.895Z,64.57
2018-09-24T02:27:56.031Z,65.04
2018-09-24T02:30:25.209Z,65.14
2018-09-24T02:32:54.048Z,64.95
2018-09-24T02:35:22.989Z,65.33
2018-09-24T02:37:52.108Z,65.36
2018-09-24T02:40:23.116Z,65.09
2018-09-24T02:42:52.075Z,65.60
2018-09-24T02:45:21.508Z,65.81
2018-09-24T02:47:50.377Z,65.43
2018-09-24T02:50:19.332Z,65.43
2018-09-24T02:52:48.491Z,66.08
2018-09-24T02:55:18.326Z,65.74
2018-09-24T02:57:47.323Z,66.38
2018-09-24T03:00:21.190Z,66.20
2018-09-24T03:02:50.271Z,66.36
2018-09-24T03:05:19.202Z,66.39
2018-09-24T03:07:48.040Z,66.11
2018-09-24T03:10:16.880Z,66.14
2018-09-24T03:12:50.660Z,65.06
2018-09-24T03:15:19.829Z,65.49
2018-09-24T03:17:48.757Z,65.18
2018-09-24T03:20:18.267Z,65.69
2018-09-24T03:23:50.784Z,65.62
2018-09-24T03:26:20.245Z,66.28
2018-09-24T03:28:49.286Z,65.19
2018-09-24T03:31:18.149Z,65.27
2018-09-24T03:33:47.275Z,65.70
2018-09-24T03:36:17.250Z,65.34
2018-09-24T03:38:46.111Z,65.41
2018-09-24T03:41:15.251Z,66.24
2018-09-24T03:43:44.110Z,66.38
2018-09-24T03:46:12.966Z,65.74
2018-09-24T03:48:42.122Z,64.64
2018-09-24T03:51:10.985Z,65.44
2018-09-24T03:53:39.841Z,64.63
2018-09-24T03:56:08.983Z,65.14
2018-09-24T03:58:37.826Z,65.11
2018-09-24T04:01:06.742Z,65.10
2018-09-24T04:03:35.902Z,65.02
2018-09-24T04:06:10.561Z,65.61
2018-09-24T04:08:44.480Z,65.24
2018-09-24T04:11:18.369Z,65.90
2018-09-24T04:13:52.593Z,65.58
2018-09-24T04:16:27.044Z,65.29
2018-09-24T04:19:02.128Z,64.92
2018-09-24T04:21:36.075Z,65.12
2018-09-24T04:24:10.816Z,66.10
2018-09-24T04:26:44.722Z,66.80
2018-09-24T04:29:18.635Z,66.83
2018-09-24T04:31:52.534Z,66.87
2018-09-24T04:34:26.603Z,67.17
2018-09-24T04:37:00.776Z,67.20
2018-09-24T04:39:34.775Z,66.97
2018-09-24T04:42:11.477Z,66.50
2018-09-24T04:44:45.345Z,67.13
2018-09-24T04:47:19.600Z,66.91
2018-09-24T04:49:53.455Z,67.37
2018-09-24T04:52:27.646Z,67.77
2018-09-24T04:55:01.533Z,67.46
2018-09-24T04:57:35.961Z,67.29
2018-09-24T05:00:10.951Z,67.66
2018-09-24T05:02:44.885Z,66.89
2018-09-24T05:05:19.083Z,67.15
2018-09-24T05:07:52.955Z,67.12
2018-09-24T05:10:26.987Z,67.09
2018-09-24T05:13:01.221Z,66.71
2018-09-24T05:15:35.568Z,66.82
2018-09-24T05:18:10.193Z,67.33
2018-09-24T05:20:44.468Z,67.08
2018-09-24T05:23:18.368Z,68.44
2018-09-24T05:25:52.282Z,68.86
2018-09-24T05:28:26.486Z,69.13
2018-09-24T05:31:00.540Z,69.06
2018-09-24T05:33:34.407Z,68.77
2018-09-24T05:36:12.176Z,68.57
2018-09-24T05:38:46.122Z,68.81
2018-09-24T05:41:20.358Z,70.04
2018-09-24T05:43:54.285Z,70.16
2018-09-24T05:46:28.474Z,70.74
2018-09-24T05:49:02.532Z,71.00
2018-09-24T05:51:36.986Z,70.10
2018-09-24T05:54:11.660Z,70.05
2018-09-24T05:56:46.074Z,70.34
2018-09-24T05:59:20.248Z,70.58
2018-09-24T06:01:54.157Z,70.25
2018-09-24T06:04:28.668Z,70.45
2018-09-24T06:07:02.610Z,69.36
2018-09-24T06:09:36.825Z,69.40
2018-09-24T06:12:11.449Z,69.69
2018-09-24T06:14:45.305Z,69.62
2018-09-24T06:17:19.121Z,70.02
2018-09-24T06:19:53.571Z,69.55
2018-09-24T06:22:27.437Z,69.85
2018-09-24T06:25:01.467Z,69.45
2018-09-24T06:27:35.381Z,69.45
2018-09-24T06:30:10.537Z,69.78
2018-09-24T06:32:44.562Z,69.82
2018-09-24T06:35:19.079Z,69.33
2018-09-24T06:37:52.999Z,69.86
2018-09-24T06:40:27.003Z,69.43
2018-09-24T06:43:01.267Z,70.05
2018-09-24T06:45:35.175Z,71.17
2018-09-24T06:48:09.952Z,70.41
2018-09-24T06:50:43.863Z,70.92
2018-09-24T06:53:18.047Z,70.43
2018-09-24T06:55:51.954Z,69.93
2018-09-24T06:58:25.850Z,70.16
2018-09-24T07:00:59.765Z,70.68
2018-09-24T07:03:33.944Z,69.31
2018-09-24T07:06:08.047Z,70.72
2018-09-24T07:08:41.960Z,70.14
2018-09-24T07:11:16.184Z,69.36
2018-09-24T07:13:50.049Z,69.01
2018-09-24T07:16:24.318Z,68.17
2018-09-24T07:18:58.351Z,68.91
2018-09-24T07:21:32.288Z,69.06
2018-09-24T07:24:06.153Z,68.15
2018-09-24T07:26:40.279Z,68.08
2018-09-24T07:29:14.469Z,68.26
2018-09-24T07:31:48.853Z,67.10
2018-09-24T07:34:23.052Z,66.43
2018-09-24T07:36:57.427Z,65.48
2018-09-24T07:39:31.648Z,65.24
2018-09-24T07:42:05.619Z,65.39
2018-09-24T07:44:39.778Z,64.32
2018-09-24T07:47:13.901Z,64.06
2018-09-24T07:49:48.326Z,63.66
2018-09-24T07:52:22.254Z,62.55
2018-09-24T07:54:56.131Z,61.43
2018-09-24T07:57:29.926Z,60.52
2018-09-24T08:00:04.169Z,60.54
2018-09-24T08:02:38.036Z,59.77
2018-09-24T08:05:11.951Z,58.63
2018-09-24T08:07:46.052Z,58.13
2018-09-24T08:10:19.931Z,57.96
2018-09-24T08:12:53.881Z,57.28
2018-09-24T08:15:27.741Z,57.30
2018-09-24T08:18:03.716Z,57.28
2018-09-24T08:20:37.591Z,56.02
2018-09-24T08:23:12.022Z,55.06
2018-09-24T08:25:45.878Z,53.30
2018-09-24T08:28:20.331Z,52.19
2018-09-24T08:30:54.230Z,51.93
2018-09-24T08:33:28.121Z,49.26
2018-09-24T08:36:03.321Z,49.95
2018-09-24T08:38:37.136Z,49.20
2018-09-24T08:41:11.493Z,48.05
2018-09-24T08:43:45.388Z,50.01
2018-09-24T08:46:19.475Z,48.73
2018-09-24T08:48:53.394Z,48.66
2018-09-24T08:51:27.655Z,47.76
2018-09-24T08:54:03.407Z,46.61
2018-09-24T08:56:37.773Z,45.59
2018-09-24T08:59:11.645Z,46.06
2018-09-24T09:01:45.727Z,46.69
2018-09-24T09:04:19.865Z,47.11
2018-09-24T09:06:53.705Z,47.84
2018-09-24T09:09:27.673Z,47.26
2018-09-24T09:12:02.810Z,47.21
2018-09-24T09:14:36.822Z,47.46
2018-09-24T09:17:11.339Z,47.23
2018-09-24T09:19:45.233Z,47.43
2018-09-24T09:22:19.480Z,47.44
2018-09-24T09:24:53.347Z,47.50
2018-09-24T09:27:27.251Z,45.87
2018-09-24T09:30:02.244Z,45.35
2018-09-24T09:32:36.556Z,44.97
2018-09-24T09:35:10.466Z,45.02
2018-09-24T09:37:44.407Z,44.70
2018-09-24T09:40:18.634Z,45.29
2018-09-24T09:42:52.522Z,44.04
2018-09-24T09:45:26.466Z,42.60
2018-09-24T09:48:00.688Z,41.62
2018-09-24T09:50:34.551Z,39.33
2018-09-24T09:53:08.590Z,37.07
2018-09-24T09:55:42.698Z,37.38
2018-09-24T09:58:17.699Z,36.21
2018-09-24T10:00:51.670Z,35.76
2018-09-24T10:03:25.530Z,33.85
2018-09-24T10:05:59.417Z,33.62
2018-09-24T10:08:33.487Z,35.08
2018-09-24T10:11:07.403Z,34.40
2018-09-24T10:13:41.580Z,34.24
2018-09-24T10:16:15.476Z,35.14
2018-09-24T10:18:49.716Z,35.67
2018-09-24T10:21:23.585Z,35.45
2018-09-24T10:23:58.760Z,35.25
2018-09-24T10:26:32.872Z,34.58
2018-09-24T10:29:07.214Z,36.02
2018-09-24T10:31:41.125Z,36.78
2018-09-24T10:34:15.214Z,36.92
2018-09-24T10:36:49.217Z,37.61
2018-09-24T10:39:23.417Z,38.78
2018-09-24T10:41:57.810Z,38.26
2018-09-24T10:44:31.676Z,38.50
2018-09-24T10:47:05.896Z,38.01
2018-09-24T10:49:39.806Z,39.30
2018-09-24T10:52:13.960Z,38.48
2018-09-24T10:54:48.068Z,39.06
2018-09-24T10:57:22.246Z,37.91
2018-09-24T10:59:56.338Z,38.97
2018-09-24T11:02:30.263Z,39.31
2018-09-24T11:05:04.281Z,38.23
2018-09-24T11:07:38.293Z,36.90
2018-09-24T11:10:12.751Z,36.28
2018-09-24T11:12:46.843Z,36.91
2018-09-24T11:15:20.924Z,37.78
2018-09-24T11:17:55.120Z,38.73
2018-09-24T11:20:29.334Z,38.98
2018-09-24T11:23:03.269Z,38.95
2018-09-24T11:25:37.211Z,38.47
2018-09-24T11:28:12.432Z,39.26
2018-09-24T11:30:46.568Z,39.37
2018-09-24T11:33:20.809Z,39.34
2018-09-24T11:35:54.691Z,39.39
2018-09-24T11:38:28.862Z,39.35
2018-09-24T11:41:02.941Z,38.82
2018-09-24T11:43:36.851Z,37.79
2018-09-24T11:46:12.412Z,35.16
2018-09-24T11:48:47.692Z,34.28
2018-09-24T11:51:22.849Z,32.18
2018-09-24T11:53:56.974Z,30.23
2018-09-24T11:56:30.862Z,29.48
2018-09-24T11:59:05.065Z,29.23
2018-09-24T12:01:38.968Z,27.86
2018-09-24T12:04:12.957Z,29.28
2018-09-24T12:06:47.382Z,28.09
2018-09-24T12:09:21.352Z,26.75
2018-09-24T12:11:55.507Z,28.00
2018-09-24T12:14:29.404Z,28.09
2018-09-24T12:17:03.631Z,27.70
2018-09-24T12:19:37.502Z,26.75
2018-09-24T12:22:11.397Z,25.83
2018-09-24T12:24:45.222Z,25.80
2018-09-24T12:27:19.664Z,26.64
2018-09-24T12:29:53.570Z,26.44
2018-09-24T12:32:27.907Z,26.71
2018-09-24T12:35:02.106Z,26.91
2018-09-24T12:37:36.332Z,27.03
2018-09-24T12:40:10.994Z,27.67
2018-09-24T12:42:45.070Z,27.86
2018-09-24T12:45:18.966Z,27.56
2018-09-24T12:47:52.902Z,27.90
2018-09-24T12:50:28.113Z,27.53
2018-09-24T12:53:02.073Z,27.83
2018-09-24T12:55:36.348Z,28.89
2018-09-24T12:58:11.027Z,28.67
2018-09-24T13:00:48.841Z,29.64
2018-09-24T13:03:22.804Z,30.37
2018-09-24T13:05:57.095Z,29.76
2018-09-24T13:08:31.134Z,30.19
2018-09-24T13:11:05.011Z,29.98
2018-09-24T13:13:39.224Z,30.06
2018-09-24T13:16:13.148Z,31.91
2018-09-24T13:18:47.026Z,32.54
2018-09-24T13:21:21.126Z,32.78
2018-09-24T13:23:55.063Z,32.92
2018-09-24T13:26:29.285Z,32.94
2018-09-24T13:29:03.188Z,32.32
2018-09-24T13:31:37.669Z,31.45
2018-09-24T13:34:11.679Z,32.25
2018-09-24T13:36:45.679Z,32.53
2018-09-24T13:39:19.885Z,32.41
2018-09-24T13:41:53.703Z,32.36
2018-09-24T13:44:27.663Z,32.64
2018-09-24T13:47:01.644Z,32.25
2018-09-24T13:49:35.745Z,31.81
2018-09-24T13:52:10.786Z,32.99
2018-09-24T13:54:45.077Z,32.32
2018-09-24T13:57:18.953Z,32.79
2018-09-24T13:59:53.161Z,32.48
2018-09-24T14:02:27.036Z,31.71
2018-09-24T14:05:01.567Z,30.87
2018-09-24T14:07:35.951Z,29.08
2018-09-24T14:10:11.118Z,28.47
2018-09-24T14:12:45.398Z,28.24
2018-09-24T14:15:26.335Z,28.61
2018-09-24T14:18:00.601Z,27.35
2018-09-24T14:20:34.626Z,26.45
2018-09-24T14:23:08.700Z,27.08
2018-09-24T14:25:42.602Z,27.21
2018-09-24T14:28:17.023Z,27.27
2018-09-24T14:30:50.945Z,28.56
2018-09-24T14:33:24.826Z,29.28
2018-09-24T14:35:58.741Z,30.26
2018-09-24T14:38:32.781Z,29.88
2018-09-24T14:41:07.085Z,31.51
2018-09-24T14:43:41.020Z,31.15
2018-09-24T14:46:14.975Z,30.60
2018-09-24T14:48:49.104Z,30.33
2018-09-24T14:51:22.987Z,30.96
2018-09-24T14:53:56.934Z,30.90
2018-09-24T14:56:30.774Z,29.81
2018-09-24T14:59:05.159Z,29.50
2018-09-24T15:01:39.427Z,28.84
2018-09-24T15:04:13.981Z,27.74
2018-09-24T15:06:48.017Z,27.53
2018-09-24T15:09:21.855Z,27.01
2018-09-24T15:11:56.097Z,27.48
2018-09-24T15:14:30.322Z,27.53
2018-09-24T15:17:04.404Z,26.55
2018-09-24T15:19:38.770Z,27.32
2018-09-24T15:22:12.800Z,27.72
2018-09-24T15:24:46.904Z,27.94
2018-09-24T15:27:20.863Z,28.00
2018-09-24T15:29:54.716Z,28.34
2018-09-24T15:32:28.573Z,28.32
2018-09-24T15:35:02.628Z,28.38
2018-09-24T15:37:36.964Z,27.27
2018-09-24T15:40:11.708Z,28.51
2018-09-24T15:42:45.899Z,29.28
2018-09-24T15:45:19.738Z,29.32
2018-09-24T15:47:53.933Z,29.67
2018-09-24T15:50:27.807Z,29.44
2018-09-24T15:53:02.520Z,30.54
2018-09-24T15:55:36.427Z,29.45
2018-09-24T15:58:11.276Z,29.41
2018-09-24T16:00:45.469Z,30.29
2018-09-24T16:03:19.380Z,30.36
2018-09-24T16:05:53.851Z,30.16
2018-09-24T16:08:27.858Z,30.43
2018-09-24T16:11:02.081Z,31.10
2018-09-24T16:13:36.128Z,30.46
2018-09-24T16:16:12.098Z,30.64
2018-09-24T16:18:45.978Z,30.24
2018-09-24T16:21:20.401Z,30.12
2018-09-24T16:23:54.424Z,30.24
2018-09-24T16:26:28.622Z,30.72
2018-09-24T16:29:02.679Z,31.42
2018-09-24T16:31:36.946Z,32.09
2018-09-24T16:34:11.030Z,33.49
2018-09-24T16:36:44.931Z,33.62
2018-09-24T16:39:18.876Z,34.11
2018-09-24T16:41:52.749Z,34.76
2018-09-24T16:44:26.926Z,34.29
2018-09-24T16:47:00.806Z,35.77
2018-09-24T16:49:35.220Z,35.39
2018-09-24T16:52:10.908Z,36.71
2018-09-24T16:54:44.764Z,36.06
2018-09-24T16:57:19.034Z,36.33
2018-09-24T16:59:52.984Z,36.89
2018-09-24T17:02:28.381Z,36.79
2018-09-24T17:05:06.239Z,37.63
2018-09-24T17:07:44.282Z,37.57
2018-09-24T17:10:18.584Z,38.60
2018-09-24T17:12:52.453Z,39.07
2018-09-24T17:15:26.693Z,38.63
2018-09-24T17:18:00.588Z,38.34
2018-09-24T17:20:34.528Z,38.97
2018-09-24T17:23:08.352Z,39.23
2018-09-24T17:25:42.733Z,40.06
2018-09-24T17:28:16.710Z,40.23
2018-09-24T17:30:50.696Z,40.03
2018-09-24T17:33:25.077Z,40.63
2018-09-24T17:35:59.714Z,40.87
2018-09-24T17:38:33.542Z,40.53
2018-09-24T17:41:07.436Z,40.54
2018-09-24T17:43:41.566Z,40.32
2018-09-24T17:46:15.785Z,41.31
2018-09-24T17:48:49.883Z,41.98
2018-09-24T17:51:24.145Z,42.79
2018-09-24T17:53:58.041Z,42.93
2018-09-24T17:56:32.452Z,43.17
2018-09-24T17:59:06.577Z,42.66
2018-09-24T18:01:41.009Z,42.66
2018-09-24T18:04:15.751Z,41.92
2018-09-24T18:06:50.331Z,42.43
2018-09-24T18:09:24.616Z,42.89
2018-09-24T18:11:59.169Z,43.32
2018-09-24T18:14:33.589Z,43.53
2018-09-24T18:17:07.979Z,42.99
2018-09-24T18:19:42.221Z,43.78
2018-09-24T18:22:16.740Z,43.41
2018-09-24T18:24:50.813Z,43.88
2018-09-24T18:27:25.341Z,44.09
2018-09-24T18:29:59.823Z,44.77
2018-09-24T18:32:34.480Z,44.52
2018-09-24T18:35:08.875Z,44.40
2018-09-24T18:37:43.065Z,44.60
2018-09-24T18:40:17.549Z,45.30
2018-09-24T18:42:51.731Z,44.98
2018-09-24T18:45:26.116Z,44.62
2018-09-24T18:48:00.667Z,44.79
2018-09-24T18:50:35.105Z,45.58
2018-09-24T18:53:09.663Z,46.07
2018-09-24T18:55:43.954Z,46.04
2018-09-24T18:58:18.558Z,46.20
2018-09-24T19:00:52.862Z,46.51
2018-09-24T19:03:27.068Z,46.95
2018-09-24T19:06:01.382Z,46.80
2018-09-24T19:08:36.002Z,46.72
2018-09-24T19:11:10.334Z,46.61
2018-09-24T19:13:44.872Z,46.96
2018-09-24T19:16:19.073Z,48.09
2018-09-24T19:18:53.361Z,47.75
2018-09-24T19:21:28.042Z,46.15
2018-09-24T19:24:03.090Z,46.43
2018-09-24T19:26:37.544Z,46.39
2018-09-24T19:29:11.895Z,46.08
2018-09-24T19:31:46.559Z,45.78
2018-09-24T19:34:20.478Z,46.24
2018-09-24T19:36:55.038Z,46.06
2018-09-24T19:39:28.933Z,45.76
2018-09-24T19:42:03.621Z,46.43
2018-09-24T19:44:37.816Z,47.21
2018-09-24T19:47:11.907Z,47.60
2018-09-24T19:49:45.971Z,47.86
2018-09-24T19:52:20.179Z,47.67
2018-09-24T19:54:54.383Z,47.97
2018-09-24T19:57:28.301Z,48.49
2018-09-24T20:00:03.320Z,48.40
2018-09-24T20:02:37.305Z,48.29
2018-09-24T20:05:11.351Z,49.02
2018-09-24T20:07:45.317Z,48.40
2018-09-24T20:10:19.185Z,48.83
2018-09-24T20:12:53.342Z,49.63
2018-09-24T20:15:27.217Z,48.69
2018-09-24T20:18:01.792Z,49.36
2018-09-24T20:20:36.726Z,49.95
2018-09-24T20:23:11.155Z,49.46
2018-09-24T20:25:45.108Z,50.51
2018-09-24T20:28:19.977Z,49.75
2018-09-24T20:30:54.083Z,50.05
2018-09-24T20:33:29.079Z,50.61
2018-09-24T20:36:03.466Z,51.24
2018-09-24T20:38:37.383Z,50.95
2018-09-24T20:41:11.759Z,50.59
2018-09-24T20:43:45.760Z,50.83
2018-09-24T20:46:19.865Z,51.44
2018-09-24T20:48:53.849Z,51.55
2018-09-24T20:51:28.286Z,51.53
2018-09-24T20:54:04.407Z,52.54
2018-09-24T20:56:38.858Z,52.24
2018-09-24T20:59:18.742Z,52.84
2018-09-24T21:01:54.416Z,52.63
2018-09-24T21:04:28.587Z,52.81
2018-09-24T21:07:02.872Z,52.98
2018-09-24T21:09:36.858Z,52.58
2018-09-24T21:12:11.618Z,52.63
2018-09-24T21:14:45.938Z,53.11
2018-09-24T21:17:20.077Z,53.32
2018-09-24T21:19:53.978Z,53.44
2018-09-24T21:22:28.666Z,53.99
2018-09-24T21:25:02.726Z,53.31
2018-09-24T21:27:37.457Z,54.19
2018-09-24T21:30:11.417Z,53.44
2018-09-24T21:33:00.008Z,53.84
2018-09-24T21:35:33.917Z,54.41
2018-09-24T21:38:08.107Z,53.98
2018-09-24T21:40:42.185Z,53.64
2018-09-24T21:43:16.249Z,54.08
2018-09-24T21:45:50.622Z,54.19
2018-09-24T21:48:24.641Z,55.05
2018-09-24T21:50:58.885Z,55.38
2018-09-24T21:53:32.904Z,54.57
2018-09-24T21:56:07.409Z,55.10
2018-09-24T21:58:41.738Z,54.96
2018-09-24T22:01:15.618Z,55.55
2018-09-24T22:03:49.610Z,55.70
2018-09-24T22:06:24.128Z,56.21
2018-09-24T22:08:58.083Z,56.35
2018-09-24T22:11:32.401Z,56.77
2018-09-24T22:14:06.344Z,56.98
2018-09-24T22:16:40.266Z,57.78
2018-09-24T22:19:14.687Z,57.17
2018-09-24T22:21:48.648Z,57.38
2018-09-24T22:24:22.960Z,57.54
2018-09-24T22:26:56.912Z,57.89
2018-09-24T22:29:30.797Z,57.81
2018-09-24T22:32:04.673Z,57.32
2018-09-24T22:34:38.634Z,57.62
2018-09-24T22:37:12.799Z,57.85
2018-09-24T22:39:46.914Z,58.89
2018-09-24T22:42:20.769Z,58.48
2018-09-24T22:44:54.642Z,58.47
2018-09-24T22:47:28.781Z,58.18
2018-09-24T22:50:03.877Z,58.20
2018-09-24T22:52:38.046Z,58.40
2018-09-24T22:55:11.928Z,58.97
2018-09-24T22:57:45.861Z,58.80
2018-09-24T23:00:19.830Z,59.51
2018-09-24T23:02:54.035Z,59.59
2018-09-24T23:05:27.942Z,59.34
2018-09-24T23:08:02.604Z,59.13
2018-09-24T23:10:36.609Z,59.27
2018-09-24T23:13:10.551Z,59.00
2018-09-24T23:15:44.477Z,59.11
2018-09-24T23:18:18.346Z,59.54
2018-09-24T23:20:52.496Z,59.40
2018-09-24T23:23:26.405Z,58.92
2018-09-24T23:26:00.257Z,59.88
2018-09-24T23:28:34.389Z,59.49
2018-09-24T23:31:08.313Z,59.25
2018-09-24T23:33:42.245Z,59.97
2018-09-24T23:36:16.555Z,60.29
2018-09-24T23:38:50.581Z,59.89
2018-09-24T23:41:24.557Z,60.25
2018-09-24T23:43:58.638Z,60.03
2018-09-24T23:46:32.525Z,59.81
2018-09-24T23:49:06.617Z,60.00
2018-09-24T23:51:40.592Z,60.42
2018-09-24T23:54:14.841Z,60.25
2018-09-24T23:56:48.730Z,60.57
2018-09-24T23:59:22.593Z,60.47
